Juan Gualberto Gomez International Airport
MUVR : rendu visible

Aérodrome :











RETROUVEZ-NOUS SUR...

 
LOGIN :

S'inscrire | Disclaimer

   EN    FR    IT 

 









Légende :    VFR   VFR Marginal   IFR   IFR Intensif   IFR Très Intensif
Visi : 
Plafond : 
>= 8 km
>= 3000ft
5 à 8 km
1000 à 3000 ft
1500m à 5 km
500 à 1000 ft
800 à 1500m
200 à 500 ft
< 800m
< 200 ft
Symboles :   Orages  Brouillard  Fortes neiges  Fortes précipitations  Vent > 20 kt






- Altitude de l'aérodrome : 210 ft
- Code IATA : VRA


MUVR - Juan Gualberto Gomez International

DERNIER METAR :
  • 120950Z 15004KT 9000 SKC 19/18 Q1013

METARs EXPIRÉS :
  • 120850Z 16004KT 9000 FEW030 20/19 Q1014
  • 120750Z 15004KT 9000 FEW030 20/19 Q1014

TAF MUVR
Valide du 12 à 06h jusqu'au 13 à 06h UTC


120500Z 1206/1306 VRB03KT 9000 FEW020
BECMG 1215/1217 05012KT SCT020
BECMG 1301/1303 VRB03KT FEW020



MET'MAP, la Météo Aéronautique d'un coup d'oeil ! - Copyright ORBIFLY Décembre 2007 - Disclaimer

ORBIFLY MET'MAP TEAM :

Programmation & Développement : Alexandra Zaïnal
Conception & Développement : Baudouin d'Aumeries
Co-Programmation & Développement : Marc-Olivier Méhu
Soutien technique & logistique : Manuel Goepfert

Contact : metmap@orbifly.com




SOURCES & CREDITS :

   NOAA       Earth
Advisory